Time;durP1;ratioP1;P1;durP2;ratioP2;P2;SDS_P1;SDS_P2;PMS_P1;PMS_P2;Temp;Humidity;BMP_temperature;BMP_pressure;BME280_temperature;BME280_humidity;BME280_pressure;Samples;Min_cycle;Max_cycle;Signal;HPM_P1;HPM_P2
2022/02/18 00:02:09;;;;;;;1.80;1.50;;;;;;;4.29;77.19;98315.84;215850;1276;139472;-76
2022/02/18 00:07:11;;;;;;;1.90;1.50;;;;;;;4.28;77.12;98315.18;213925;1276;140013;-72
2022/02/18 00:12:15;;;;;;;3.10;1.20;;;;;;;4.25;76.80;98325.27;215691;1276;140697;-78
2022/02/18 00:17:18;;;;;;;4.50;1.50;;;;;;;4.25;76.72;98329.59;215622;1276;140273;-78
2022/02/18 00:22:22;;;;;;;2.80;1.70;;;;;;;4.26;76.56;98340.58;215789;1276;140497;-79
2022/02/18 00:27:25;;;;;;;4.60;1.50;;;;;;;4.26;76.65;98343.70;215918;1276;140114;-76
2022/02/18 00:32:28;;;;;;;7.10;2.50;;;;;;;4.27;76.58;98349.04;215825;1276;141668;-79
2022/02/18 00:37:31;;;;;;;5.00;1.60;;;;;;;4.26;76.36;98355.35;215910;1274;141779;-78
2022/02/18 00:42:34;;;;;;;7.60;2.50;;;;;;;4.26;76.25;98371.50;212915;1276;143305;-74
2022/02/18 00:47:38;;;;;;;8.10;2.70;;;;;;;4.26;76.25;98378.04;215594;1276;141034;-78
2022/02/18 00:52:40;;;;;;;4.50;2.50;;;;;;;4.26;76.09;98388.75;215890;1275;142215;-79
2022/02/18 00:57:44;;;;;;;6.50;1.20;;;;;;;4.28;75.98;98390.09;216093;1276;141695;-77
2022/02/18 01:02:47;;;;;;;8.60;3.00;;;;;;;4.29;75.76;98393.39;215802;1276;140174;-80
2022/02/18 01:07:51;;;;;;;4.20;1.60;;;;;;;4.31;75.63;98405.45;215767;1275;139422;-78
2022/02/18 01:12:54;;;;;;;4.80;1.30;;;;;;;4.31;75.40;98415.55;215599;1276;141202;-76
2022/02/18 01:17:57;;;;;;;6.90;2.00;;;;;;;4.30;75.24;98416.26;215873;1276;139984;-76
2022/02/18 01:23:00;;;;;;;3.40;1.50;;;;;;;4.29;75.17;98425.41;215929;1275;141584;-79
2022/02/18 01:28:03;;;;;;;3.20;1.10;;;;;;;4.26;74.95;98424.25;214924;1275;140560;-74
2022/02/18 01:33:05;;;;;;;6.70;1.80;;;;;;;4.25;74.93;98433.35;214745;1276;140721;-76
2022/02/18 01:38:09;;;;;;;4.40;1.20;;;;;;;4.27;74.83;98431.42;215061;1276;141952;-79
2022/02/18 01:43:12;;;;;;;6.30;1.20;;;;;;;4.27;74.76;98440.88;214105;1276;140130;-75
2022/02/18 01:48:16;;;;;;;6.50;2.00;;;;;;;4.29;74.55;98463.55;214547;1275;140186;-70
2022/02/18 01:53:19;;;;;;;6.50;1.30;;;;;;;4.29;74.41;98487.02;214435;1276;142046;-74
2022/02/18 01:58:24;;;;;;;4.20;1.20;;;;;;;4.25;74.40;98493.43;214386;1276;141245;-77
2022/02/18 02:03:26;;;;;;;1.30;0.60;;;;;;;4.15;74.23;98495.42;213569;1276;141200;-76
2022/02/18 02:08:30;;;;;;;2.90;1.10;;;;;;;4.04;74.47;98493.91;214514;1276;140656;-74
2022/02/18 02:13:37;;;;;;;6.60;1.30;;;;;;;3.98;74.57;98501.72;214645;1276;140598;-75
2022/02/18 02:18:40;;;;;;;9.70;1.80;;;;;;;3.94;74.24;98499.40;214195;1276;140840;-76
2022/02/18 02:23:43;;;;;;;3.70;1.30;;;;;;;3.90;74.27;98508.57;215288;1276;141268;-76
2022/02/18 02:28:47;;;;;;;3.60;1.30;;;;;;;3.90;74.36;98516.16;214011;1276;141512;-75
2022/02/18 02:33:50;;;;;;;9.30;1.40;;;;;;;3.90;74.47;98521.27;213143;1277;141241;-70
2022/02/18 02:38:53;;;;;;;6.10;1.30;;;;;;;3.86;74.27;98533.23;216034;1276;142743;-76
2022/02/18 02:43:55;;;;;;;4.10;1.40;;;;;;;3.85;74.30;98536.36;215801;1276;140107;-74
2022/02/18 02:48:59;;;;;;;6.00;2.50;;;;;;;3.85;74.38;98536.89;215300;1276;139946;-78
2022/02/18 02:54:03;;;;;;;3.90;2.00;;;;;;;3.84;74.13;98543.09;214520;1276;139688;-78
2022/02/18 02:59:06;;;;;;;2.30;1.20;;;;;;;3.84;74.21;98546.83;215942;1275;139906;-78
2022/02/18 03:04:08;;;;;;;6.80;1.80;;;;;;;3.86;74.17;98549.90;215918;1276;139363;-78
2022/02/18 03:09:14;;;;;;;5.40;1.50;;;;;;;3.88;74.15;98553.80;215752;1276;139943;-75
2022/02/18 03:14:18;;;;;;;3.80;1.70;;;;;;;3.87;74.16;98554.25;214458;1275;140489;-73
2022/02/18 03:19:21;;;;;;;6.60;1.90;;;;;;;3.87;74.01;98563.43;215734;1276;140278;-69
2022/02/18 03:24:24;;;;;;;7.50;1.30;;;;;;;3.89;73.90;98569.65;215942;1276;141967;-75
2022/02/18 03:29:27;;;;;;;5.50;2.30;;;;;;;3.93;73.88;98574.89;216001;1276;142035;-79
2022/02/18 03:34:30;;;;;;;4.30;1.70;;;;;;;3.99;73.78;98582.50;215824;1276;140615;-80
2022/02/18 03:39:34;;;;;;;6.40;2.50;;;;;;;4.02;73.52;98586.36;215504;1276;141468;-79
2022/02/18 03:44:37;;;;;;;2.40;1.00;;;;;;;4.05;73.30;98592.89;215799;1276;140830;-78
2022/02/18 03:49:40;;;;;;;3.70;2.10;;;;;;;4.07;73.15;98603.91;214974;1276;140261;-74
2022/02/18 03:54:43;;;;;;;15.20;2.60;;;;;;;4.10;73.03;98610.74;214350;1275;139930;-76
2022/02/18 03:59:46;;;;;;;10.40;1.90;;;;;;;4.10;72.98;98619.67;215878;1276;139863;-77
2022/02/18 04:04:50;;;;;;;2.90;1.10;;;;;;;4.10;72.85;98625.15;213754;1276;140360;-73
2022/02/18 04:09:53;;;;;;;2.70;1.40;;;;;;;4.09;72.75;98632.66;215218;1276;139563;-75
2022/02/18 04:14:55;;;;;;;3.50;1.40;;;;;;;4.06;72.66;98640.00;215344;1275;139251;-78
2022/02/18 04:19:59;;;;;;;7.20;2.00;;;;;;;4.01;72.51;98651.93;213908;1275;140084;-74
2022/02/18 04:25:22;;;;;;;5.10;1.20;;;;;;;4.00;72.50;98661.39;215018;1276;142744;-78
2022/02/18 04:30:26;;;;;;;9.10;1.20;;;;;;;3.95;72.49;98662.96;214008;1276;139627;-70
2022/02/18 04:35:29;;;;;;;2.00;1.10;;;;;;;3.92;72.53;98669.23;215730;1276;141876;-78
2022/02/18 04:40:33;;;;;;;7.30;1.50;;;;;;;3.91;72.41;98680.97;214157;1275;140320;-77
2022/02/18 04:45:37;;;;;;;7.10;1.60;;;;;;;3.90;72.52;98689.63;214366;1276;246380;-75
2022/02/18 04:50:41;;;;;;;3.80;1.10;;;;;;;3.88;72.39;98692.15;214346;1276;139587;-74
2022/02/18 04:56:08;;;;;;;3.20;1.60;;;;;;;3.86;72.28;98702.31;214390;1276;140379;-75
2022/02/18 05:01:11;;;;;;;8.50;1.40;;;;;;;3.83;72.21;98710.29;215890;1276;140445;-78
2022/02/18 05:06:15;;;;;;;5.30;1.60;;;;;;;3.82;72.13;98712.04;215866;1276;140854;-78
2022/02/18 05:11:18;;;;;;;6.40;1.40;;;;;;;3.81;72.19;98710.82;215816;1276;140709;-78
2022/02/18 05:16:20;;;;;;;4.80;1.80;;;;;;;3.82;72.34;98714.06;215576;1276;140654;-77
2022/02/18 05:21:25;;;;;;;4.90;1.70;;;;;;;3.83;72.08;98723.30;215817;1276;140626;-76
2022/02/18 05:26:29;;;;;;;8.50;3.60;;;;;;;3.82;72.18;98726.02;216031;1276;140473;-75
2022/02/18 05:31:32;;;;;;;2.70;1.20;;;;;;;3.81;72.12;98732.04;216017;1276;142353;-79
2022/02/18 05:36:35;;;;;;;5.80;1.30;;;;;;;3.75;71.99;98735.68;215923;1276;140529;-77
2022/02/18 05:41:37;;;;;;;1.90;1.20;;;;;;;3.70;72.08;98746.46;215716;1276;140489;-78
2022/02/18 05:46:40;;;;;;;4.80;1.50;;;;;;;3.67;72.11;98742.55;214717;1276;976043;-73
2022/02/18 05:51:43;;;;;;;2.10;1.20;;;;;;;3.62;72.07;98748.33;215772;1276;140566;-75
2022/02/18 05:56:47;;;;;;;7.70;2.40;;;;;;;3.56;72.12;98755.46;215867;1276;142199;-77
2022/02/18 06:01:51;;;;;;;7.80;1.60;;;;;;;3.55;72.31;98764.46;215679;1276;139732;-77
2022/02/18 06:06:54;;;;;;;4.00;1.30;;;;;;;3.54;72.04;98775.30;215734;1276;139931;-74
2022/02/18 06:11:57;;;;;;;7.60;1.20;;;;;;;3.49;72.33;98789.88;212877;1276;139330;-71
2022/02/18 06:17:02;;;;;;;8.00;1.80;;;;;;;3.45;72.37;98788.67;215919;1276;139918;-74
2022/02/18 06:22:06;;;;;;;7.60;1.70;;;;;;;3.44;72.48;98795.98;215783;1276;140835;-79
2022/02/18 06:27:10;;;;;;;4.40;1.80;;;;;;;3.46;72.44;98810.43;215922;1275;140747;-71
2022/02/18 06:32:14;;;;;;;8.10;1.80;;;;;;;3.53;72.66;98817.58;215963;1276;141272;-80
2022/02/18 06:37:17;;;;;;;6.70;2.60;;;;;;;3.58;72.44;98826.19;215485;1276;139804;-76
2022/02/18 06:42:21;;;;;;;4.70;2.10;;;;;;;3.61;72.51;98825.04;215694;1276;140295;-78
2022/02/18 06:47:24;;;;;;;4.10;1.20;;;;;;;3.65;72.47;98835.27;215929;1276;140963;-77
2022/02/18 06:52:26;;;;;;;6.20;2.30;;;;;;;3.71;72.55;98843.29;215911;1276;141199;-72
2022/02/18 06:57:29;;;;;;;8.40;2.70;;;;;;;3.80;72.37;98853.17;216037;1276;141555;-74
2022/02/18 07:02:32;;;;;;;5.90;1.80;;;;;;;3.83;72.28;98862.86;215768;1276;140984;-73
2022/02/18 07:07:36;;;;;;;5.50;1.50;;;;;;;3.82;72.38;98871.02;215698;1276;140268;-73
2022/02/18 07:12:40;;;;;;;4.50;1.90;;;;;;;3.87;72.17;98882.58;216044;1276;140926;-77
2022/02/18 07:17:43;;;;;;;2.60;1.40;;;;;;;3.93;72.20;98869.73;216327;1276;141972;-74
2022/02/18 07:22:46;;;;;;;8.80;1.90;;;;;;;4.00;72.28;98865.70;215917;1276;141395;-74
2022/02/18 07:27:50;;;;;;;7.70;3.20;;;;;;;4.02;71.92;98867.79;215668;1276;142075;-77
2022/02/18 07:32:54;;;;;;;12.60;2.20;;;;;;;4.06;71.73;98868.66;215920;1276;140939;-76
2022/02/18 07:38:02;;;;;;;6.00;2.10;;;;;;;4.13;71.87;98862.16;215990;1276;141401;-73
2022/02/18 07:43:07;;;;;;;5.10;2.80;;;;;;;4.19;71.81;98870.02;215866;1276;141229;-70
2022/02/18 07:48:31;;;;;;;8.50;4.10;;;;;;;4.33;71.50;98874.70;215838;1276;141850;-73
2022/02/18 07:53:35;;;;;;;5.70;2.00;;;;;;;4.51;71.46;98880.34;215705;1276;142126;-71
2022/02/18 07:58:41;;;;;;;5.50;1.60;;;;;;;4.69;71.28;98885.52;215949;1276;140457;-72
2022/02/18 08:03:49;;;;;;;7.10;1.40;;;;;;;4.89;71.09;98896.54;216355;1276;141845;-70
2022/02/18 08:08:53;;;;;;;9.90;2.20;;;;;;;5.02;70.60;98905.55;215924;1276;140991;-70
2022/02/18 08:13:58;;;;;;;8.30;2.10;;;;;;;4.96;70.51;98915.15;215947;1276;140460;-71
2022/02/18 08:19:01;;;;;;;3.70;1.80;;;;;;;4.90;70.31;98925.42;215871;1276;141094;-74
2022/02/18 08:24:05;;;;;;;6.90;2.00;;;;;;;4.77;70.16;98929.88;216088;1276;142722;-71
2022/02/18 08:29:08;;;;;;;4.40;1.60;;;;;;;4.72;70.26;98933.63;216172;1276;140123;-72
2022/02/18 08:34:10;;;;;;;10.00;2.40;;;;;;;4.77;70.25;98936.70;215988;1276;141434;-72
2022/02/18 08:39:13;;;;;;;6.20;1.60;;;;;;;4.86;70.11;98944.89;215815;1276;140456;-78
2022/02/18 08:44:16;;;;;;;8.60;2.10;;;;;;;4.89;69.76;98952.15;215581;1276;140670;-77
2022/02/18 08:49:20;;;;;;;4.60;2.30;;;;;;;4.99;69.80;98962.14;215914;1276;140804;-70
2022/02/18 08:54:23;;;;;;;4.50;1.70;;;;;;;5.18;69.70;98967.45;216184;1276;141176;-71
2022/02/18 08:59:26;;;;;;;4.90;2.10;;;;;;;5.46;69.89;98967.12;216263;1276;140889;-70
2022/02/18 09:04:29;;;;;;;4.70;1.90;;;;;;;5.85;69.84;98966.54;215819;1276;139522;-71
2022/02/18 09:09:32;;;;;;;5.30;2.10;;;;;;;6.26;69.25;98969.64;215523;1276;141816;-70
2022/02/18 09:14:35;;;;;;;8.90;3.80;;;;;;;6.56;68.90;98966.80;215826;1276;165746;-71
2022/02/18 09:19:38;;;;;;;7.10;1.30;;;;;;;6.76;68.52;98965.48;216160;1276;140411;-71
2022/02/18 09:24:43;;;;;;;9.70;2.30;;;;;;;6.88;67.87;98961.59;216393;1276;139453;-74
2022/02/18 09:29:46;;;;;;;7.70;2.20;;;;;;;6.90;67.41;98965.02;216242;1276;140877;-72
2022/02/18 09:34:49;;;;;;;8.40;1.90;;;;;;;6.88;67.24;98974.55;215911;1276;139998;-78
2022/02/18 09:39:52;;;;;;;7.30;3.10;;;;;;;6.87;66.32;98984.23;215592;1276;140780;-79
2022/02/18 09:45:03;;;;;;;18.00;3.20;;;;;;;6.81;66.44;98995.36;215922;1276;139760;-80
2022/02/18 09:50:07;;;;;;;3.40;1.50;;;;;;;6.83;66.30;98986.56;216133;1276;139918;-81
2022/02/18 09:55:10;;;;;;;2.40;1.60;;;;;;;7.16;66.54;98984.15;215764;1276;139651;-73
2022/02/18 10:00:14;;;;;;;12.70;2.70;;;;;;;7.35;65.85;98992.10;215599;1276;140641;-73
2022/02/18 10:05:16;;;;;;;7.30;2.20;;;;;;;7.41;65.26;98986.87;215716;1276;140165;-71
2022/02/18 10:10:19;;;;;;;6.60;2.10;;;;;;;7.63;65.59;98985.14;215594;1276;140357;-73
2022/02/18 10:15:21;;;;;;;9.00;2.30;;;;;;;8.04;65.53;98988.02;216126;1276;139181;-73
2022/02/18 10:20:28;;;;;;;5.70;2.60;;;;;;;8.41;64.94;98986.87;216400;1275;139198;-73
2022/02/18 10:25:33;;;;;;;3.70;2.60;;;;;;;8.78;64.40;98986.13;215780;1276;140186;-71
2022/02/18 10:30:36;;;;;;;9.20;2.10;;;;;;;8.74;63.28;98985.84;215998;1276;140157;-70
2022/02/18 10:35:40;;;;;;;7.40;2.50;;;;;;;8.69;63.23;98982.68;215712;1276;138930;-72
2022/02/18 10:40:49;;;;;;;5.50;2.00;;;;;;;8.93;63.51;98986.40;215784;1277;140743;-74
2022/02/18 10:46:01;;;;;;;11.50;4.10;;;;;;;9.20;62.76;98976.48;215787;1277;140937;-73
2022/02/18 10:51:14;;;;;;;5.20;2.50;;;;;;;9.31;61.78;98969.37;216161;1276;140365;-75
2022/02/18 10:56:20;;;;;;;5.70;2.10;;;;;;;9.33;60.99;98961.48;215543;1276;139412;-72
2022/02/18 11:01:24;;;;;;;5.40;2.00;;;;;;;9.18;60.38;98960.38;215621;1277;139157;-76
2022/02/18 11:06:32;;;;;;;3.70;1.60;;;;;;;9.10;60.52;98951.16;215827;1277;141322;-74
2022/02/18 11:11:44;;;;;;;8.20;2.50;;;;;;;9.11;59.96;98953.15;215451;1276;139466;-73
2022/02/18 11:16:52;;;;;;;7.90;3.60;;;;;;;9.07;59.96;98949.63;216209;1276;139807;-70
2022/02/18 11:21:55;;;;;;;3.00;2.00;;;;;;;9.11;59.86;98951.27;216267;1276;141095;-70
2022/02/18 11:27:03;;;;;;;3.30;1.70;;;;;;;9.10;59.04;98943.02;216394;1277;140426;-71
2022/02/18 11:32:19;;;;;;;11.20;2.30;;;;;;;8.91;58.97;98945.71;215672;1276;140405;-74
2022/02/18 11:37:40;;;;;;;6.50;3.50;;;;;;;8.83;58.71;98932.63;215638;1276;140055;-73
2022/02/18 11:43:18;;;;;;;6.40;2.10;;;;;;;8.98;59.31;98927.14;215896;1276;140855;-78
2022/02/18 11:48:44;;;;;;;2.10;1.20;;;;;;;9.19;59.24;98925.42;215933;1276;140396;-76
2022/02/18 11:53:57;;;;;;;10.60;3.10;;;;;;;9.23;58.65;98912.66;215969;1277;140220;-75
2022/02/18 11:59:05;;;;;;;;;;;;;;;9.18;58.72;98913.86;216006;1276;139801;-73
2022/02/18 12:04:19;;;;;;;2.50;2.30;;;;;;;9.22;58.90;98905.79;216829;1277;127759;-74
2022/02/18 12:09:56;;;;;;;5.10;1.60;;;;;;;9.21;57.79;98901.95;215692;1276;139110;-72
2022/02/18 12:15:17;;;;;;;2.70;1.90;;;;;;;9.13;57.23;98891.80;215673;1276;140735;-78
2022/02/18 12:20:28;;;;;;;5.50;1.50;;;;;;;9.09;56.78;98884.15;215675;1276;140137;-78
2022/02/18 12:25:31;;;;;;;8.80;2.00;;;;;;;9.04;56.26;98879.39;216383;1276;139575;-78
2022/02/18 12:30:40;;;;;;;6.10;2.70;;;;;;;8.98;56.23;98868.20;216532;1276;139689;-78
2022/02/18 12:35:43;;;;;;;7.70;1.40;;;;;;;8.98;56.49;98864.52;215998;1276;140476;-76
2022/02/18 12:40:48;;;;;;;3.40;2.10;;;;;;;9.09;56.51;98855.48;215946;1276;152248;-76
2022/02/18 12:45:56;;;;;;;3.50;1.80;;;;;;;9.15;55.93;98854.19;215869;1276;140051;-76
2022/02/18 12:51:02;;;;;;;3.60;1.50;;;;;;;9.19;55.45;98845.64;215989;1276;139950;-78
2022/02/18 12:56:27;;;;;;;3.10;1.60;;;;;;;9.17;55.16;98845.33;216254;1276;139707;-73
2022/02/18 13:01:31;;;;;;;3.80;1.80;;;;;;;9.19;55.33;98842.09;216465;1276;140148;-82
2022/02/18 13:06:37;;;;;;;3.30;1.20;;;;;;;9.25;55.27;98836.31;216182;1276;140050;-81
2022/02/18 13:11:40;;;;;;;6.10;3.60;;;;;;;9.24;54.99;98835.07;215772;1276;140353;-73
2022/02/18 13:16:47;;;;;;;2.60;1.40;;;;;;;9.22;55.00;98828.94;215848;1276;139533;-77
2022/02/18 13:21:51;;;;;;;4.10;1.70;;;;;;;9.28;55.07;98826.93;215737;1276;139671;-78
2022/02/18 13:26:54;;;;;;;3.50;1.70;;;;;;;9.28;54.91;98816.73;216605;1276;138965;-79
2022/02/18 13:31:57;;;;;;;2.40;1.20;;;;;;;9.20;54.74;98804.83;216320;1276;139628;-77
2022/02/18 13:36:59;;;;;;;3.40;1.10;;;;;;;9.18;54.66;98793.16;215935;1276;141757;-81
2022/02/18 13:42:02;;;;;;;1.90;1.40;;;;;;;9.16;54.88;98777.41;215743;1276;139459;-76
2022/02/18 13:47:06;;;;;;;1.60;1.50;;;;;;;9.15;55.01;98770.26;215948;1276;140218;-80
2022/02/18 13:52:08;;;;;;;2.90;1.70;;;;;;;9.07;55.12;98758.65;215847;1276;140879;-79
2022/02/18 13:57:12;;;;;;;4.30;1.50;;;;;;;8.95;55.17;98750.40;216520;1276;139286;-78
2022/02/18 14:02:22;;;;;;;4.90;1.20;;;;;;;8.80;55.32;98740.30;216020;1276;139285;-77
2022/02/18 14:07:27;;;;;;;5.50;1.20;;;;;;;8.68;55.23;98729.46;216092;1276;139376;-79
2022/02/18 14:12:47;;;;;;;4.10;1.10;;;;;;;8.53;55.79;98702.86;215915;1276;139745;-80
2022/02/18 14:17:49;;;;;;;7.60;2.40;;;;;;;8.39;56.03;98695.52;215616;1276;139792;-78
2022/02/18 14:22:57;;;;;;;3.00;1.70;;;;;;;8.27;56.33;98676.48;215765;1276;140624;-73
2022/02/18 14:28:12;;;;;;;7.60;2.30;;;;;;;8.24;56.71;98675.44;216168;1276;139276;-80
2022/02/18 14:33:22;;;;;;;3.20;1.60;;;;;;;8.25;57.35;98667.37;216319;1276;140371;-78
2022/02/18 14:38:26;;;;;;;4.60;3.20;;;;;;;8.22;57.43;98652.26;215960;1276;140364;-79
2022/02/18 14:43:29;;;;;;;2.70;1.90;;;;;;;8.18;57.72;98644.03;215928;1276;140946;-79
2022/02/18 14:48:33;;;;;;;3.90;1.70;;;;;;;8.15;57.71;98638.47;215655;1276;140994;-78
2022/02/18 14:53:36;;;;;;;4.00;3.20;;;;;;;8.11;58.32;98635.96;215795;1276;140358;-79
2022/02/18 14:58:39;;;;;;;2.50;1.70;;;;;;;8.03;58.44;98629.48;216193;1276;140426;-78
2022/02/18 15:03:41;;;;;;;7.80;2.00;;;;;;;7.94;58.11;98609.95;216493;1276;139264;-78
2022/02/18 15:08:45;;;;;;;5.70;2.60;;;;;;;7.89;58.88;98595.45;215972;1276;142886;-77
2022/02/18 15:13:47;;;;;;;7.70;1.80;;;;;;;7.84;59.19;98577.81;215579;1276;139985;-77
2022/02/18 15:18:50;;;;;;;7.60;3.00;;;;;;;7.78;58.92;98564.46;215634;1276;140799;-74
2022/02/18 15:23:55;;;;;;;3.90;2.80;;;;;;;7.71;59.38;98554.50;216134;1276;141013;-82
2022/02/18 15:28:58;;;;;;;4.70;2.50;;;;;;;7.66;59.66;98545.52;216353;1276;139684;-79
2022/02/18 15:44:43;;;;;;;5.40;3.10;;;;;;;7.37;59.96;98525.44;215479;1276;140326;-73
2022/02/18 15:49:47;;;;;;;9.50;3.30;;;;;;;7.28;60.37;98513.92;215646;1276;139172;-80
2022/02/18 15:54:50;;;;;;;4.50;2.80;;;;;;;7.22;60.43;98497.81;216011;1276;139257;-79
2022/02/18 15:59:52;;;;;;;5.20;2.50;;;;;;;7.17;60.99;98486.92;216160;1276;140696;-79
2022/02/18 16:04:56;;;;;;;7.80;3.10;;;;;;;7.14;60.63;98477.59;216278;1276;138795;-76
2022/02/18 16:10:03;;;;;;;18.90;17.10;;;;;;;7.12;61.36;98467.71;215927;1275;140121;-74
2022/02/18 16:15:08;;;;;;;7.50;2.90;;;;;;;7.12;61.06;98451.54;215636;1276;140730;-75
2022/02/18 16:20:15;;;;;;;7.00;3.50;;;;;;;7.12;61.34;98438.83;215613;1276;141579;-73
2022/02/18 16:25:17;;;;;;;6.80;2.60;;;;;;;7.10;61.50;98428.26;215766;1276;140587;-73
2022/02/18 16:30:20;;;;;;;4.70;3.30;;;;;;;7.08;61.58;98418.00;216372;1275;140808;-70
2022/02/18 16:35:23;;;;;;;10.60;3.60;;;;;;;7.07;61.72;98408.64;216403;1276;224922;-73
2022/02/18 16:40:25;;;;;;;5.30;4.20;;;;;;;7.08;61.21;98398.96;215763;1276;141117;-73
2022/02/18 16:45:28;;;;;;;5.00;2.60;;;;;;;7.08;61.63;98387.21;215718;1275;139607;-73
2022/02/18 16:50:35;;;;;;;3.50;2.90;;;;;;;7.06;61.84;98370.70;215641;1275;139808;-72
2022/02/18 16:55:38;;;;;;;15.30;3.10;;;;;;;7.03;61.71;98352.60;215760;1276;139248;-74
2022/02/18 17:00:40;;;;;;;6.50;2.90;;;;;;;7.00;61.68;98355.13;216179;1275;141524;-76
2022/02/18 17:05:43;;;;;;;7.50;3.40;;;;;;;6.99;61.73;98344.40;215981;1276;139121;-75
2022/02/18 17:10:46;;;;;;;4.20;3.00;;;;;;;6.97;61.73;98333.45;215894;1275;139429;-78
2022/02/18 17:15:49;;;;;;;4.90;2.80;;;;;;;6.95;61.83;98322.41;215786;1275;140083;-74
2022/02/18 17:20:51;;;;;;;10.80;6.20;;;;;;;6.95;61.99;98310.07;215811;1276;139127;-78
2022/02/18 17:25:53;;;;;;;19.40;14.20;;;;;;;6.94;62.54;98297.91;215878;1276;140481;-78
2022/02/18 17:30:55;;;;;;;9.00;4.40;;;;;;;6.88;62.59;98291.63;215112;1276;140192;-77
2022/02/18 17:35:58;;;;;;;7.20;4.20;;;;;;;6.84;63.03;98287.50;215706;1276;139991;-75
2022/02/18 17:41:00;;;;;;;7.10;3.00;;;;;;;6.79;63.14;98282.04;215916;1276;139530;-75
2022/02/18 17:46:03;;;;;;;4.20;2.50;;;;;;;6.73;63.64;98276.72;215273;1275;517192;-80
2022/02/18 17:51:06;;;;;;;3.20;2.90;;;;;;;6.65;64.19;98253.80;215886;1276;141078;-77
2022/02/18 17:56:08;;;;;;;4.90;3.10;;;;;;;6.54;64.91;98238.55;215719;1276;140925;-74
2022/02/18 18:01:11;;;;;;;6.40;3.30;;;;;;;6.41;65.61;98222.81;215740;1276;140436;-73
2022/02/18 18:06:14;;;;;;;3.90;2.40;;;;;;;6.31;66.35;98217.29;216040;1276;140450;-73
2022/02/18 18:11:24;;;;;;;5.70;2.50;;;;;;;6.23;67.19;98213.25;215754;1276;139688;-74
2022/02/18 18:16:27;;;;;;;5.20;2.00;;;;;;;6.11;67.37;98177.05;215474;1276;140330;-77
2022/02/18 18:21:31;;;;;;;2.70;2.40;;;;;;;5.97;68.11;98149.35;215926;1276;141602;-76
2022/02/18 18:26:36;;;;;;;5.80;3.10;;;;;;;5.83;68.41;98129.60;216350;1276;141917;-79
2022/02/18 18:31:41;;;;;;;9.30;3.80;;;;;;;5.69;69.32;98109.48;215634;1276;141147;-76
2022/02/18 18:36:45;;;;;;;7.70;3.10;;;;;;;5.59;69.78;98091.98;215780;1275;140785;-76
2022/02/18 18:41:47;;;;;;;8.10;2.90;;;;;;;5.49;70.49;98068.58;216016;1276;141757;-74
2022/02/18 18:46:50;;;;;;;5.60;2.90;;;;;;;5.39;71.13;98064.32;215923;1276;140700;-71
2022/02/18 18:51:53;;;;;;;4.00;3.00;;;;;;;5.33;71.56;98043.92;215622;1275;139811;-74
2022/02/18 18:56:55;;;;;;;14.30;4.50;;;;;;;5.33;71.74;98026.08;215742;1276;140001;-72
2022/02/18 19:01:58;;;;;;;9.70;3.10;;;;;;;5.35;72.00;98011.69;215985;1276;141666;-71
2022/02/18 19:07:01;;;;;;;8.50;3.40;;;;;;;5.34;72.43;98001.79;216053;1276;140202;-74
2022/02/18 19:12:05;;;;;;;5.20;2.50;;;;;;;5.33;72.91;97972.39;215655;1274;140622;-74
2022/02/18 19:17:07;;;;;;;13.80;6.10;;;;;;;5.35;73.32;97950.27;215968;1276;140671;-73
2022/02/18 19:22:11;;;;;;;9.70;3.50;;;;;;;5.34;73.70;97934.57;216166;1276;141300;-73
2022/02/18 19:27:14;;;;;;;10.90;4.70;;;;;;;5.34;74.08;97919.89;215914;1276;140302;-74
2022/02/18 19:32:17;;;;;;;8.50;4.30;;;;;;;5.36;74.33;97907.44;215862;1276;141381;-74
2022/02/18 19:37:19;;;;;;;16.00;4.10;;;;;;;5.36;74.76;97885.13;216059;1275;141551;-74
2022/02/18 19:42:22;;;;;;;13.00;6.70;;;;;;;5.35;74.87;97872.07;215576;1275;140898;-74
2022/02/18 19:47:24;;;;;;;7.70;3.40;;;;;;;5.36;75.54;97863.00;215895;1275;141577;-74
2022/02/18 19:52:27;;;;;;;6.30;4.10;;;;;;;5.39;75.55;97848.82;215898;1276;143375;-74
2022/02/18 19:57:30;;;;;;;9.20;4.00;;;;;;;5.43;75.71;97836.66;216123;1276;140685;-75
2022/02/18 20:02:33;;;;;;;6.30;4.10;;;;;;;5.46;75.90;97819.20;215976;1276;141735;-75
2022/02/18 20:07:36;;;;;;;17.60;5.70;;;;;;;5.50;76.12;97806.23;216011;1276;140236;-74
2022/02/18 20:12:39;;;;;;;18.00;5.20;;;;;;;5.56;76.42;97783.39;216227;1276;141140;-74
2022/02/18 20:17:42;;;;;;;15.40;5.60;;;;;;;5.63;76.51;97774.59;216089;1276;139968;-75
2022/02/18 20:22:45;;;;;;;16.00;4.80;;;;;;;5.72;76.55;97757.86;215596;1276;141544;-74
2022/02/18 20:27:46;;;;;;;16.80;5.60;;;;;;;5.79;76.38;97757.04;215916;1276;142553;-71
2022/02/18 20:32:49;;;;;;;21.80;6.20;;;;;;;5.85;76.75;97752.09;216141;1276;140561;-75
2022/02/18 21:08:15;;;;;;;17.90;5.70;;;;;;;5.86;77.53;97681.50;214227;1313;682040;-74
2022/02/18 21:13:18;;;;;;;10.90;4.60;;;;;;;5.90;77.77;97681.34;213693;1286;140298;-73
2022/02/18 21:18:21;;;;;;;11.80;4.90;;;;;;;6.00;77.75;97663.08;213328;1285;742258;-74
2022/02/18 21:23:25;;;;;;;10.10;3.50;;;;;;;6.13;77.42;97654.29;214347;1284;140269;-71
2022/02/18 21:28:30;;;;;;;11.90;4.80;;;;;;;6.25;77.74;97642.41;214356;1284;140403;-74
2022/02/18 21:33:34;;;;;;;8.30;3.00;;;;;;;6.36;77.60;97633.46;213676;1284;140455;-72
2022/02/18 21:38:38;;;;;;;12.00;4.40;;;;;;;6.50;77.67;97620.11;213254;1281;140592;-72
2022/02/18 21:43:41;;;;;;;10.00;3.30;;;;;;;6.60;77.66;97616.55;213774;1284;140833;-72
2022/02/18 21:48:44;;;;;;;15.10;4.00;;;;;;;6.71;77.64;97602.23;213081;1285;140139;-71
2022/02/18 21:53:51;;;;;;;8.90;3.50;;;;;;;6.81;77.56;97582.54;212440;1285;140581;-72
2022/02/18 21:58:54;;;;;;;5.40;3.80;;;;;;;6.89;77.73;97583.46;212620;1284;140138;-72
2022/02/18 22:03:58;;;;;;;6.10;2.90;;;;;;;6.97;77.21;97553.96;212643;1284;140199;-69
2022/02/18 22:09:01;;;;;;;8.50;2.60;;;;;;;7.05;77.56;97555.55;214333;1277;139326;-72
2022/02/18 22:14:04;;;;;;;6.90;2.30;;;;;;;7.13;77.22;97540.87;214614;1277;141409;-72
2022/02/18 22:19:08;;;;;;;7.60;3.10;;;;;;;7.22;77.38;97531.39;213519;1277;139498;-72
2022/02/18 22:27:29;;;;;;;6.60;1.80;;;;;;;7.42;76.80;97524.36;213522;1313;686405;-73
2022/02/18 22:32:32;;;;;;;6.10;2.50;;;;;;;7.53;76.93;97525.30;211853;1289;139679;-69
2022/02/18 22:37:36;;;;;;;5.10;1.90;;;;;;;7.64;76.67;97521.08;212160;1289;1267238;-72
2022/02/18 22:42:40;;;;;;;4.50;2.70;;;;;;;7.75;76.35;97535.89;213263;1288;140414;-72
2022/02/18 22:47:42;;;;;;;6.10;4.20;;;;;;;7.88;76.02;97564.98;213593;1287;139378;-73
2022/02/18 22:52:46;;;;;;;6.60;2.70;;;;;;;8.00;76.38;97565.41;212582;1287;140966;-73
2022/02/18 22:57:49;;;;;;;6.20;2.10;;;;;;;8.07;75.55;97568.36;213429;1287;139013;-75
2022/02/18 23:02:51;;;;;;;3.80;2.30;;;;;;;8.16;75.45;97574.39;212959;1289;140908;-74
2022/02/18 23:07:54;;;;;;;5.10;1.30;;;;;;;8.27;75.40;97565.98;214135;1284;139158;-74
2022/02/18 23:12:56;;;;;;;7.10;2.20;;;;;;;8.39;75.16;97564.22;213838;1285;140382;-73
2022/02/18 23:17:59;;;;;;;5.10;2.50;;;;;;;8.49;74.97;97564.34;214026;1284;139751;-74
2022/02/18 23:23:02;;;;;;;5.00;1.90;;;;;;;8.59;74.73;97558.32;214252;1282;139781;-74
2022/02/18 23:28:05;;;;;;;6.90;3.00;;;;;;;8.69;74.57;97549.77;214019;1283;139980;-76
2022/02/18 23:33:07;;;;;;;10.50;3.30;;;;;;;8.76;74.22;97536.45;211988;1283;139492;-70
2022/02/18 23:38:10;;;;;;;5.50;2.10;;;;;;;8.80;74.10;97539.66;213630;1282;140061;-77
2022/02/18 23:43:14;;;;;;;2.20;1.80;;;;;;;8.84;73.74;97532.73;213791;1283;140780;-76
2022/02/18 23:48:16;;;;;;;2.20;1.90;;;;;;;8.90;73.43;97544.51;213697;1283;140438;-76
2022/02/18 23:53:19;;;;;;;3.60;2.40;;;;;;;8.99;73.08;97564.59;214219;1283;141094;-77
2022/02/18 23:58:25;;;;;;;9.30;1.60;;;;;;;9.10;72.17;97572.59;212552;1283;140424;-75
